U vindt ons ook hier:

Het Weer Aktueel

UK Metoffice

European Weather Network

Weather Underground

Citizen Weather Observer Program (CWOP)



Sneeuw/IJzel/Bevriezing van: 16-01-2021 15:00 tot: 17-01-2021 06:00 waarschuwing voor: Sneeuw/IJzel/Bevriezing niveau: Geel info button
Enkele uren lichte tot matige sneeuw, 1-3 cm, lokaal mogelijk 3-5 cm.Vanaf de tweede helft van de avond geen sneeuwval meer, maar nog wel gladheid door de eerder gevallen sneeuw.Kans op gladheid.Alle verkeersdeelnemers kunnen hinder ondervinden.Pas uw rijgedrag aan.Volg weerberichten en waarschuwingen.

Select another period ( hide this area )

Eenheden Periode Custom range Directly to
Metrisch Engels Beide
Dagelijkse Wekelijkse Maandelijkse Jaarlijkse
use both date-selectors for a custom range
previous Dag
With this date

WeatherUnderground graphs for this period ( click here )


Dagelijkse Samenvatting Zaterdag 16 januari 2021
Tijd Temp. ( °C ) Dew pt. ( °C ) Wind ( km/h ) van Windvlaag ( km/h ) Luchtdruk ( hPa ) Humid.( % ) Rainrate ( cm ) Zonneschijn ( W/m2 )
Hoog1,6 -0,9 5,0 ZW ( 142/201 ) 13,0 1029,9 84 - 0
Gemiddeld1,4 -1,1 2,7 ZW #54/75 7,4 1028,8 84 - NAN #0/75
Laag1,1 -1,3 -   3,0 1027,2 82 -  
Dagelijkse Tabular details for Zaterdag 16 januari 2021
Tijd Temp. ( °C ) Dew pt. ( °C ) Wind ( km/h ) van Windvlaag ( km/h ) Luchtdruk ( hPa ) Humid.( % ) Rainrate ( cm ) Zonneschijn ( W/m2 )
00:04 1,1 -1,3 5,0 ZZW 11,0 1029,9 84 - -
00:09 1,1 -1,3 3,0 ZZW 11,0 1029,9 84 - -
00:14 1,2 -1,2 2,0 ZW 6,0 1029,9 84 - -
00:19 1,2 -1,2 2,0 ZW 5,0 1029,9 84 - -
00:24 1,2 -1,2   Kalm 5,0 1029,9 84 - -
00:29 1,2 -1,2 2,0 ZW 5,0 1029,9 84 - -
00:34 1,2 -1,2 2,0 ZW 5,0 1029,8 84 - -
00:39 1,2 -1,2 2,0 ZW 5,0 1029,8 84 - -
00:44 1,2 -1,2   Kalm 3,0 1029,8 84 - -
00:49 1,2 -1,2   Kalm 3,0 1029,7 84 - -
00:54 1,2 -1,2 2,0 ZW 3,0 1029,6 84 - -
00:59 1,2 -1,2 2,0 ZW 5,0 1029,6 84 - -
01:04 1,3 -1,1 2,0 ZW 5,0 1029,5 84 - -
01:09 1,2 -1,2 2,0 ZW 5,0 1029,5 84 - -
01:14 1,2 -1,2 2,0 ZW 5,0 1029,5 84 - -
01:19 1,2 -1,2 3,0 ZW 6,0 1029,5 84 - -
01:24 1,3 -1,1 3,0 ZW 6,0 1029,5 84 - -
01:29 1,3 -1,1 3,0 ZW 6,0 1029,5 84 - -
01:34 1,3 -1,1 3,0 ZW 6,0 1029,4 84 - -
01:39 1,3 -1,1 2,0 ZW 6,0 1029,4 84 - -
01:44 1,3 -1,1 2,0 ZW 6,0 1029,4 84 - -
01:49 1,3 -1,1 3,0 ZW 6,0 1029,4 84 - -
01:54 1,3 -1,1 3,0 ZW 6,0 1029,3 84 - -
01:59 1,4 -1,0 3,0 ZW 8,0 1029,2 84 - -
02:04 1,4 -1,0 3,0 ZW 8,0 1029,2 84 - -
02:09 1,4 -1,0 3,0 ZW 8,0 1029,2 84 - -
02:14 1,4 -1,0 2,0 ZW 5,0 1029,2 84 - -
02:19 1,4 -1,0 2,0 ZW 8,0 1029,2 84 - -
02:24 1,4 -1,0 3,0 ZW 8,0 1029,1 84 - -
02:29 1,4 -1,0 3,0 ZW 8,0 1029,0 84 - -
02:34 1,4 -1,0 2,0 ZW 6,0 1029,0 84 - -
02:39 1,4 -1,0 2,0 ZW 6,0 1029,0 84 - -
02:44 1,4 -1,0 3,0 ZW 6,0 1029,0 84 - -
02:49 1,4 -1,0 3,0 ZW 6,0 1028,9 84 - -
02:54 1,5 -0,9 2,0 ZW 5,0 1029,0 84 - -
02:59 1,4 -1,0   Kalm 3,0 1028,9 84 - -
03:04 1,4 -1,0 2,0 ZW 6,0 1028,9 84 - -
03:09 1,4 -1,0 3,0 ZW 6,0 1029,0 84 - -
03:14 1,5 -0,9 3,0 ZW 6,0 1029,0 84 - -
03:19 1,4 -1,0 2,0 ZW 5,0 1028,9 84 - -
03:24 1,4 -1,0 2,0 ZW 5,0 1028,9 84 - -
03:29 1,4 -1,0   Kalm 3,0 1028,9 84 - -
03:34 1,4 -1,0 2,0 ZW 5,0 1028,8 84 - -
03:39 1,4 -1,0 2,0 ZW 5,0 1028,8 84 - -
03:44 1,4 -1,0 2,0 ZW 5,0 1028,8 84 - -
03:49 1,4 -1,0 2,0 ZW 6,0 1028,6 84 - -
03:54 1,4 -1,0 3,0 ZW 6,0 1028,6 84 - -
03:59 1,4 -1,0 3,0 ZW 6,0 1028,5 84 - -
04:04 1,4 -1,0 3,0 ZW 10,0 1028,5 84 - -
04:09 1,4 -1,0 3,0 ZW 10,0 1028,4 84 - -
04:14 1,4 -1,0 3,0 ZW 10,0 1028,3 84 - -
04:19 1,4 -1,0 2,0 ZW 6,0 1028,3 84 - -
04:24 1,4 -1,0 3,0 ZW 10,0 1028,2 84 - -
04:29 1,4 -1,0 5,0 ZW 10,0 1028,2 84 - -
04:34 1,4 -1,2 5,0 ZW 10,0 1028,1 83 - -
04:39 1,4 -1,2 3,0 ZW 10,0 1028,0 83 - -
04:44 1,5 -1,1 3,0 ZW 10,0 1028,0 83 - -
04:49 1,4 -1,2 3,0 ZW 10,0 1028,0 83 - -
04:54 1,5 -1,1 2,0 ZW 10,0 1028,0 83 - -
04:59 1,5 -1,1 3,0 ZW 11,0 1028,0 83 - -
05:04 1,4 -1,2 5,0 ZW 13,0 1027,9 83 - -
05:09 1,5 -1,1 5,0 WZW 13,0 1027,9 83 - -
05:14 1,5 -1,1 5,0 WZW 13,0 1027,9 83 - -
05:19 1,5 -1,1 3,0 WZW 11,0 1027,8 83 - -
05:24 1,6 -1,0 2,0 WZW 6,0 1027,6 83 - -
05:29 1,5 -1,1 2,0 WZW 6,0 1027,6 83 - -
05:34 1,5 -1,1 2,0 WZW 10,0 1027,6 83 - -
05:39 1,5 -1,1 3,0 WZW 10,0 1027,6 83 - -
05:44 1,4 -1,2 3,0 WZW 11,0 1027,6 83 - -
05:49 1,4 -1,2 3,0 WZW 11,0 1027,5 83 - -
05:54 1,4 -1,2 5,0 WZW 11,0 1027,4 83 - -
05:59 1,4 -1,2 5,0 WZW 11,0 1027,4 83 - -
06:04 1,4 -1,2 5,0 WZW 11,0 1027,3 83 - -
06:09 1,4 -1,2 3,0 WZW 11,0 1027,2 83 - -
06:14 1,4 -1,3 5,0 WZW 11,0 1027,2 82 - -
Dagelijkse Samenvatting Zaterdag 16 januari 2021
Tijd Temp. ( °C ) Dew pt. ( °C ) Wind ( km/h ) van Windvlaag ( km/h ) Luchtdruk ( hPa ) Humid.( % ) Rainrate ( cm ) Zonneschijn ( W/m2 )
Hoog1,6 -0,9 5,0 ZW ( 142/201 ) 13,0 1029,9 84 - 0
Gemiddeld1,4 -1,1 2,7 ZW #54/75 7,4 1028,8 84 - NAN #0/75
Laag1,1 -1,3 -   3,0 1027,2 82 -  
Dagelijkse Tabular details for Zaterdag 16 januari 2021
Tijd Temp. ( °C ) Dew pt. ( °C ) Wind ( km/h ) van Windvlaag ( km/h ) Luchtdruk ( hPa ) Humid.( % ) Rainrate ( cm ) Zonneschijn ( W/m2 )
00:04 1,1 -1,3 5,0 ZZW 11,0 1029,9 84 - -
00:09 1,1 -1,3 3,0 ZZW 11,0 1029,9 84 - -
00:14 1,2 -1,2 2,0 ZW 6,0 1029,9 84 - -
00:19 1,2 -1,2 2,0 ZW 5,0 1029,9 84 - -
00:24 1,2 -1,2   Kalm 5,0 1029,9 84 - -
00:29 1,2 -1,2 2,0 ZW 5,0 1029,9 84 - -
00:34 1,2 -1,2 2,0 ZW 5,0 1029,8 84 - -
00:39 1,2 -1,2 2,0 ZW 5,0 1029,8 84 - -
00:44 1,2 -1,2   Kalm 3,0 1029,8 84 - -
00:49 1,2 -1,2   Kalm 3,0 1029,7 84 - -
00:54 1,2 -1,2 2,0 ZW 3,0 1029,6 84 - -
00:59 1,2 -1,2 2,0 ZW 5,0 1029,6 84 - -
01:04 1,3 -1,1 2,0 ZW 5,0 1029,5 84 - -
01:09 1,2 -1,2 2,0 ZW 5,0 1029,5 84 - -
01:14 1,2 -1,2 2,0 ZW 5,0 1029,5 84 - -
01:19 1,2 -1,2 3,0 ZW 6,0 1029,5 84 - -
01:24 1,3 -1,1 3,0 ZW 6,0 1029,5 84 - -
01:29 1,3 -1,1 3,0 ZW 6,0 1029,5 84 - -
01:34 1,3 -1,1 3,0 ZW 6,0 1029,4 84 - -
01:39 1,3 -1,1 2,0 ZW 6,0 1029,4 84 - -
01:44 1,3 -1,1 2,0 ZW 6,0 1029,4 84 - -
01:49 1,3 -1,1 3,0 ZW 6,0 1029,4 84 - -
01:54 1,3 -1,1 3,0 ZW 6,0 1029,3 84 - -
01:59 1,4 -1,0 3,0 ZW 8,0 1029,2 84 - -
02:04 1,4 -1,0 3,0 ZW 8,0 1029,2 84 - -
02:09 1,4 -1,0 3,0 ZW 8,0 1029,2 84 - -
02:14 1,4 -1,0 2,0 ZW 5,0 1029,2 84 - -
02:19 1,4 -1,0 2,0 ZW 8,0 1029,2 84 - -
02:24 1,4 -1,0 3,0 ZW 8,0 1029,1 84 - -
02:29 1,4 -1,0 3,0 ZW 8,0 1029,0 84 - -
02:34 1,4 -1,0 2,0 ZW 6,0 1029,0 84 - -
02:39 1,4 -1,0 2,0 ZW 6,0 1029,0 84 - -
02:44 1,4 -1,0 3,0 ZW 6,0 1029,0 84 - -
02:49 1,4 -1,0 3,0 ZW 6,0 1028,9 84 - -
02:54 1,5 -0,9 2,0 ZW 5,0 1029,0 84 - -
02:59 1,4 -1,0   Kalm 3,0 1028,9 84 - -
03:04 1,4 -1,0 2,0 ZW 6,0 1028,9 84 - -
03:09 1,4 -1,0 3,0 ZW 6,0 1029,0 84 - -
03:14 1,5 -0,9 3,0 ZW 6,0 1029,0 84 - -
03:19 1,4 -1,0 2,0 ZW 5,0 1028,9 84 - -
03:24 1,4 -1,0 2,0 ZW 5,0 1028,9 84 - -
03:29 1,4 -1,0   Kalm 3,0 1028,9 84 - -
03:34 1,4 -1,0 2,0 ZW 5,0 1028,8 84 - -
03:39 1,4 -1,0 2,0 ZW 5,0 1028,8 84 - -
03:44 1,4 -1,0 2,0 ZW 5,0 1028,8 84 - -
03:49 1,4 -1,0 2,0 ZW 6,0 1028,6 84 - -
03:54 1,4 -1,0 3,0 ZW 6,0 1028,6 84 - -
03:59 1,4 -1,0 3,0 ZW 6,0 1028,5 84 - -
04:04 1,4 -1,0 3,0 ZW 10,0 1028,5 84 - -
04:09 1,4 -1,0 3,0 ZW 10,0 1028,4 84 - -
04:14 1,4 -1,0 3,0 ZW 10,0 1028,3 84 - -
04:19 1,4 -1,0 2,0 ZW 6,0 1028,3 84 - -
04:24 1,4 -1,0 3,0 ZW 10,0 1028,2 84 - -
04:29 1,4 -1,0 5,0 ZW 10,0 1028,2 84 - -
04:34 1,4 -1,2 5,0 ZW 10,0 1028,1 83 - -
04:39 1,4 -1,2 3,0 ZW 10,0 1028,0 83 - -
04:44 1,5 -1,1 3,0 ZW 10,0 1028,0 83 - -
04:49 1,4 -1,2 3,0 ZW 10,0 1028,0 83 - -
04:54 1,5 -1,1 2,0 ZW 10,0 1028,0 83 - -
04:59 1,5 -1,1 3,0 ZW 11,0 1028,0 83 - -
05:04 1,4 -1,2 5,0 ZW 13,0 1027,9 83 - -
05:09 1,5 -1,1 5,0 WZW 13,0 1027,9 83 - -
05:14 1,5 -1,1 5,0 WZW 13,0 1027,9 83 - -
05:19 1,5 -1,1 3,0 WZW 11,0 1027,8 83 - -
05:24 1,6 -1,0 2,0 WZW 6,0 1027,6 83 - -
05:29 1,5 -1,1 2,0 WZW 6,0 1027,6 83 - -
05:34 1,5 -1,1 2,0 WZW 10,0 1027,6 83 - -
05:39 1,5 -1,1 3,0 WZW 10,0 1027,6 83 - -
05:44 1,4 -1,2 3,0 WZW 11,0 1027,6 83 - -
05:49 1,4 -1,2 3,0 WZW 11,0 1027,5 83 - -
05:54 1,4 -1,2 5,0 WZW 11,0 1027,4 83 - -
05:59 1,4 -1,2 5,0 WZW 11,0 1027,4 83 - -
06:04 1,4 -1,2 5,0 WZW 11,0 1027,3 83 - -
06:09 1,4 -1,2 3,0 WZW 11,0 1027,2 83 - -
06:14 1,4 -1,3 5,0 WZW 11,0 1027,2 82 - -

Download your copy of this data-set  here

Our weather-data as stored at Weather Underground. Script ontwikkeld door Jim McMurry. Aangepast voor de template door Leuven-Template.eu

Apparatuur in gebruik:

Weerstation
Davis VP2

Weerprogramma
Cumulus

Weercomputer
Gigabyte Brix

Webleverancier
GetHost

Davis VP2

Cumulus

Gigabyte Brix

GetHost